sensor_id;sensor_type;location;lat;lon;timestamp;temperature;humidity
17807;DHT22;9027;48.938;9.182;2023-03-14T00:01:22;11.50;99.90
17807;DHT22;9027;48.938;9.182;2023-03-14T00:02:54;11.60;99.90
17807;DHT22;9027;48.938;9.182;2023-03-14T00:04:26;11.50;99.90
17807;DHT22;9027;48.938;9.182;2023-03-14T00:06:01;11.50;99.90
17807;DHT22;9027;48.938;9.182;2023-03-14T00:07:34;11.50;99.90
17807;DHT22;9027;48.938;9.182;2023-03-14T00:09:07;11.50;99.90
17807;DHT22;9027;48.938;9.182;2023-03-14T00:10:39;11.50;99.90
17807;DHT22;9027;48.938;9.182;2023-03-14T00:12:10;11.50;99.90
17807;DHT22;9027;48.938;9.182;2023-03-14T00:13:42;11.50;99.90
17807;DHT22;9027;48.938;9.182;2023-03-14T00:15:16;11.50;99.90
17807;DHT22;9027;48.938;9.182;2023-03-14T00:16:48;11.60;99.90
17807;DHT22;9027;48.938;9.182;2023-03-14T00:18:19;11.50;99.90
17807;DHT22;9027;48.938;9.182;2023-03-14T00:19:51;11.50;99.90
17807;DHT22;9027;48.938;9.182;2023-03-14T00:21:24;11.60;99.90
17807;DHT22;9027;48.938;9.182;2023-03-14T00:22:56;11.70;99.90
17807;DHT22;9027;48.938;9.182;2023-03-14T00:24:28;11.60;99.90
17807;DHT22;9027;48.938;9.182;2023-03-14T00:25:59;11.60;99.90
17807;DHT22;9027;48.938;9.182;2023-03-14T00:27:32;11.60;99.90
17807;DHT22;9027;48.938;9.182;2023-03-14T00:29:03;11.50;99.90
17807;DHT22;9027;48.938;9.182;2023-03-14T00:30:38;11.60;99.90
17807;DHT22;9027;48.938;9.182;2023-03-14T00:32:10;11.50;99.90
17807;DHT22;9027;48.938;9.182;2023-03-14T00:33:45;11.50;99.90
17807;DHT22;9027;48.938;9.182;2023-03-14T00:35:17;11.50;99.90
17807;DHT22;9027;48.938;9.182;2023-03-14T00:36:50;11.50;99.90
17807;DHT22;9027;48.938;9.182;2023-03-14T00:38:22;11.50;99.90
17807;DHT22;9027;48.938;9.182;2023-03-14T00:39:53;11.50;99.90
17807;DHT22;9027;48.938;9.182;2023-03-14T00:41:25;11.50;99.90
17807;DHT22;9027;48.938;9.182;2023-03-14T00:42:57;11.50;99.90
17807;DHT22;9027;48.938;9.182;2023-03-14T00:44:28;11.50;99.90
17807;DHT22;9027;48.938;9.182;2023-03-14T00:46:01;11.50;99.90
17807;DHT22;9027;48.938;9.182;2023-03-14T00:47:33;11.50;99.90
17807;DHT22;9027;48.938;9.182;2023-03-14T00:49:04;11.50;99.90
17807;DHT22;9027;48.938;9.182;2023-03-14T00:50:36;11.40;99.90
17807;DHT22;9027;48.938;9.182;2023-03-14T00:52:08;11.40;99.90
17807;DHT22;9027;48.938;9.182;2023-03-14T00:53:40;11.40;99.90
17807;DHT22;9027;48.938;9.182;2023-03-14T00:55:12;11.40;99.90
17807;DHT22;9027;48.938;9.182;2023-03-14T00:56:43;11.40;99.90
17807;DHT22;9027;48.938;9.182;2023-03-14T00:58:17;11.40;99.90
17807;DHT22;9027;48.938;9.182;2023-03-14T00:59:50;11.50;99.90
17807;DHT22;9027;48.938;9.182;2023-03-14T01:01:24;11.50;99.90
17807;DHT22;9027;48.938;9.182;2023-03-14T01:02:56;11.40;99.90
17807;DHT22;9027;48.938;9.182;2023-03-14T01:04:28;11.50;99.90
17807;DHT22;9027;48.938;9.182;2023-03-14T01:06:09;11.40;99.90
17807;DHT22;9027;48.938;9.182;2023-03-14T01:07:41;11.40;99.90
17807;DHT22;9027;48.938;9.182;2023-03-14T01:09:13;11.40;99.90
17807;DHT22;9027;48.938;9.182;2023-03-14T01:10:45;11.40;99.90
17807;DHT22;9027;48.938;9.182;2023-03-14T01:12:17;11.40;99.90
17807;DHT22;9027;48.938;9.182;2023-03-14T01:13:49;11.50;99.90
17807;DHT22;9027;48.938;9.182;2023-03-14T01:15:21;11.40;99.90
17807;DHT22;9027;48.938;9.182;2023-03-14T01:16:54;11.40;99.90
17807;DHT22;9027;48.938;9.182;2023-03-14T01:18:31;11.40;99.90
17807;DHT22;9027;48.938;9.182;2023-03-14T01:20:03;11.50;99.90
17807;DHT22;9027;48.938;9.182;2023-03-14T01:21:37;11.40;99.90
17807;DHT22;9027;48.938;9.182;2023-03-14T01:23:09;11.40;99.90
17807;DHT22;9027;48.938;9.182;2023-03-14T01:24:40;11.40;99.90
17807;DHT22;9027;48.938;9.182;2023-03-14T01:26:15;11.50;99.90
17807;DHT22;9027;48.938;9.182;2023-03-14T01:27:47;11.50;99.90
17807;DHT22;9027;48.938;9.182;2023-03-14T01:29:18;11.50;99.90
17807;DHT22;9027;48.938;9.182;2023-03-14T01:30:49;11.50;99.90
17807;DHT22;9027;48.938;9.182;2023-03-14T01:32:23;11.50;99.90
17807;DHT22;9027;48.938;9.182;2023-03-14T01:33:56;11.60;99.90
17807;DHT22;9027;48.938;9.182;2023-03-14T01:35:28;11.60;99.90
17807;DHT22;9027;48.938;9.182;2023-03-14T01:37:01;11.60;99.90
17807;DHT22;9027;48.938;9.182;2023-03-14T01:38:35;11.60;99.90
17807;DHT22;9027;48.938;9.182;2023-03-14T01:40:09;11.60;99.90
17807;DHT22;9027;48.938;9.182;2023-03-14T01:41:41;11.70;99.90
17807;DHT22;9027;48.938;9.182;2023-03-14T01:43:15;11.70;99.90
17807;DHT22;9027;48.938;9.182;2023-03-14T01:44:48;11.60;99.90
17807;DHT22;9027;48.938;9.182;2023-03-14T01:46:29;11.60;99.90
17807;DHT22;9027;48.938;9.182;2023-03-14T01:48:05;11.60;99.90
17807;DHT22;9027;48.938;9.182;2023-03-14T01:49:37;11.60;99.90
17807;DHT22;9027;48.938;9.182;2023-03-14T01:51:17;11.60;99.90
17807;DHT22;9027;48.938;9.182;2023-03-14T01:52:50;11.60;99.90
17807;DHT22;9027;48.938;9.182;2023-03-14T01:54:27;11.60;99.90
17807;DHT22;9027;48.938;9.182;2023-03-14T01:56:03;11.60;99.90
17807;DHT22;9027;48.938;9.182;2023-03-14T01:57:40;11.60;99.90
17807;DHT22;9027;48.938;9.182;2023-03-14T01:59:14;11.60;99.90
17807;DHT22;9027;48.938;9.182;2023-03-14T02:00:46;11.50;99.90
17807;DHT22;9027;48.938;9.182;2023-03-14T02:02:18;11.50;99.90
17807;DHT22;9027;48.938;9.182;2023-03-14T02:03:55;11.60;99.90
17807;DHT22;9027;48.938;9.182;2023-03-14T02:05:29;11.60;99.90
17807;DHT22;9027;48.938;9.182;2023-03-14T02:07:10;11.50;99.90
17807;DHT22;9027;48.938;9.182;2023-03-14T02:08:48;11.50;99.90
17807;DHT22;9027;48.938;9.182;2023-03-14T02:10:27;11.50;99.90
17807;DHT22;9027;48.938;9.182;2023-03-14T02:12:00;11.50;99.90
17807;DHT22;9027;48.938;9.182;2023-03-14T02:13:55;11.60;99.90
17807;DHT22;9027;48.938;9.182;2023-03-14T02:15:38;11.50;99.90
17807;DHT22;9027;48.938;9.182;2023-03-14T02:17:17;11.60;99.90
17807;DHT22;9027;48.938;9.182;2023-03-14T02:19:05;11.60;99.90
17807;DHT22;9027;48.938;9.182;2023-03-14T02:21:08;11.60;99.90
17807;DHT22;9027;48.938;9.182;2023-03-14T02:22:42;11.60;99.90
17807;DHT22;9027;48.938;9.182;2023-03-14T02:24:21;11.50;99.90
17807;DHT22;9027;48.938;9.182;2023-03-14T02:26:06;11.50;99.90
17807;DHT22;9027;48.938;9.182;2023-03-14T02:27:42;11.50;99.90
17807;DHT22;9027;48.938;9.182;2023-03-14T02:29:14;11.50;99.90
17807;DHT22;9027;48.938;9.182;2023-03-14T02:30:47;11.50;99.90
17807;DHT22;9027;48.938;9.182;2023-03-14T02:32:21;11.50;99.90
17807;DHT22;9027;48.938;9.182;2023-03-14T02:33:54;11.50;99.90
17807;DHT22;9027;48.938;9.182;2023-03-14T02:35:29;11.50;99.90
17807;DHT22;9027;48.938;9.182;2023-03-14T02:37:02;11.50;99.90
17807;DHT22;9027;48.938;9.182;2023-03-14T02:38:37;11.50;99.90
17807;DHT22;9027;48.938;9.182;2023-03-14T02:40:11;11.50;99.90
17807;DHT22;9027;48.938;9.182;2023-03-14T02:41:44;11.50;99.90
17807;DHT22;9027;48.938;9.182;2023-03-14T02:43:18;11.50;99.90
17807;DHT22;9027;48.938;9.182;2023-03-14T02:46:55;11.50;99.90
17807;DHT22;9027;48.938;9.182;2023-03-14T02:48:30;11.50;99.90
17807;DHT22;9027;48.938;9.182;2023-03-14T02:50:06;11.50;99.90
17807;DHT22;9027;48.938;9.182;2023-03-14T02:51:41;11.50;99.90
17807;DHT22;9027;48.938;9.182;2023-03-14T02:53:17;11.40;99.90
17807;DHT22;9027;48.938;9.182;2023-03-14T02:54:50;11.40;99.90
17807;DHT22;9027;48.938;9.182;2023-03-14T02:56:23;11.40;99.90
17807;DHT22;9027;48.938;9.182;2023-03-14T02:57:54;11.40;99.90
17807;DHT22;9027;48.938;9.182;2023-03-14T02:59:27;11.40;99.90
17807;DHT22;9027;48.938;9.182;2023-03-14T03:01:06;11.40;99.90
17807;DHT22;9027;48.938;9.182;2023-03-14T03:02:38;11.40;99.90
17807;DHT22;9027;48.938;9.182;2023-03-14T03:04:09;11.40;99.90
17807;DHT22;9027;48.938;9.182;2023-03-14T03:05:42;11.40;99.90
17807;DHT22;9027;48.938;9.182;2023-03-14T03:07:13;11.30;99.90
17807;DHT22;9027;48.938;9.182;2023-03-14T03:08:45;11.30;99.90
17807;DHT22;9027;48.938;9.182;2023-03-14T03:10:16;11.30;99.90
17807;DHT22;9027;48.938;9.182;2023-03-14T03:11:48;11.30;99.90
17807;DHT22;9027;48.938;9.182;2023-03-14T03:13:24;11.30;99.90
17807;DHT22;9027;48.938;9.182;2023-03-14T03:15:00;11.30;99.90
17807;DHT22;9027;48.938;9.182;2023-03-14T03:16:32;11.30;99.90
17807;DHT22;9027;48.938;9.182;2023-03-14T03:18:04;11.30;99.90
17807;DHT22;9027;48.938;9.182;2023-03-14T03:19:35;11.30;99.90
17807;DHT22;9027;48.938;9.182;2023-03-14T03:21:07;11.20;99.90
17807;DHT22;9027;48.938;9.182;2023-03-14T03:22:40;11.20;99.90
17807;DHT22;9027;48.938;9.182;2023-03-14T03:24:11;11.20;99.90
17807;DHT22;9027;48.938;9.182;2023-03-14T03:25:48;11.20;99.90
17807;DHT22;9027;48.938;9.182;2023-03-14T03:27:19;11.30;99.90
17807;DHT22;9027;48.938;9.182;2023-03-14T03:28:51;11.30;99.90
17807;DHT22;9027;48.938;9.182;2023-03-14T03:30:25;11.30;99.90
17807;DHT22;9027;48.938;9.182;2023-03-14T03:31:56;11.20;99.90
17807;DHT22;9027;48.938;9.182;2023-03-14T03:33:27;11.30;99.90
17807;DHT22;9027;48.938;9.182;2023-03-14T03:34:58;11.30;99.90
17807;DHT22;9027;48.938;9.182;2023-03-14T03:36:30;11.30;99.90
17807;DHT22;9027;48.938;9.182;2023-03-14T03:38:03;11.30;99.90
17807;DHT22;9027;48.938;9.182;2023-03-14T03:39:35;11.30;99.90
17807;DHT22;9027;48.938;9.182;2023-03-14T03:41:08;11.30;99.90
17807;DHT22;9027;48.938;9.182;2023-03-14T03:42:40;11.20;99.90
17807;DHT22;9027;48.938;9.182;2023-03-14T03:44:13;11.20;99.90
17807;DHT22;9027;48.938;9.182;2023-03-14T03:45:47;11.20;99.90
17807;DHT22;9027;48.938;9.182;2023-03-14T03:47:19;11.20;99.90
17807;DHT22;9027;48.938;9.182;2023-03-14T03:48:54;11.20;99.90
17807;DHT22;9027;48.938;9.182;2023-03-14T03:50:26;11.20;99.90
17807;DHT22;9027;48.938;9.182;2023-03-14T03:51:58;11.20;99.90
17807;DHT22;9027;48.938;9.182;2023-03-14T03:53:30;11.20;99.90
17807;DHT22;9027;48.938;9.182;2023-03-14T03:55:00;11.20;99.90
17807;DHT22;9027;48.938;9.182;2023-03-14T03:56:33;11.20;99.90
17807;DHT22;9027;48.938;9.182;2023-03-14T03:58:05;11.10;99.90
17807;DHT22;9027;48.938;9.182;2023-03-14T03:59:38;11.10;99.90
17807;DHT22;9027;48.938;9.182;2023-03-14T04:01:12;11.10;99.90
17807;DHT22;9027;48.938;9.182;2023-03-14T04:02:44;11.10;99.90
17807;DHT22;9027;48.938;9.182;2023-03-14T04:04:19;11.10;99.90
17807;DHT22;9027;48.938;9.182;2023-03-14T04:05:58;11.10;99.90
17807;DHT22;9027;48.938;9.182;2023-03-14T04:07:31;11.10;99.90
17807;DHT22;9027;48.938;9.182;2023-03-14T04:09:04;11.10;99.90
17807;DHT22;9027;48.938;9.182;2023-03-14T04:10:47;11.10;99.90
17807;DHT22;9027;48.938;9.182;2023-03-14T04:12:24;11.10;99.90
17807;DHT22;9027;48.938;9.182;2023-03-14T04:14:09;11.00;99.90
17807;DHT22;9027;48.938;9.182;2023-03-14T04:15:41;11.00;99.90
17807;DHT22;9027;48.938;9.182;2023-03-14T04:17:21;11.00;99.90
17807;DHT22;9027;48.938;9.182;2023-03-14T04:18:53;11.10;99.90
17807;DHT22;9027;48.938;9.182;2023-03-14T04:20:26;11.00;99.90
17807;DHT22;9027;48.938;9.182;2023-03-14T04:21:58;11.10;99.90
17807;DHT22;9027;48.938;9.182;2023-03-14T04:23:35;11.10;99.90
17807;DHT22;9027;48.938;9.182;2023-03-14T04:25:09;11.00;99.90
17807;DHT22;9027;48.938;9.182;2023-03-14T04:26:46;11.00;99.90
17807;DHT22;9027;48.938;9.182;2023-03-14T04:28:17;11.00;99.90
17807;DHT22;9027;48.938;9.182;2023-03-14T04:29:50;11.00;99.90
17807;DHT22;9027;48.938;9.182;2023-03-14T04:31:30;11.00;99.90
17807;DHT22;9027;48.938;9.182;2023-03-14T04:33:03;11.00;99.90
17807;DHT22;9027;48.938;9.182;2023-03-14T04:34:38;11.00;99.90
17807;DHT22;9027;48.938;9.182;2023-03-14T04:36:11;11.00;99.90
17807;DHT22;9027;48.938;9.182;2023-03-14T04:37:42;11.00;99.90
17807;DHT22;9027;48.938;9.182;2023-03-14T04:39:15;11.00;99.90
17807;DHT22;9027;48.938;9.182;2023-03-14T04:40:54;11.00;99.90
17807;DHT22;9027;48.938;9.182;2023-03-14T04:42:30;11.00;99.90
17807;DHT22;9027;48.938;9.182;2023-03-14T04:44:02;11.00;99.90
17807;DHT22;9027;48.938;9.182;2023-03-14T04:45:34;11.00;99.90
17807;DHT22;9027;48.938;9.182;2023-03-14T04:47:08;11.00;99.90
17807;DHT22;9027;48.938;9.182;2023-03-14T04:48:43;11.00;99.90
17807;DHT22;9027;48.938;9.182;2023-03-14T04:50:15;11.00;99.90
17807;DHT22;9027;48.938;9.182;2023-03-14T04:51:47;11.00;99.90
17807;DHT22;9027;48.938;9.182;2023-03-14T04:53:21;11.00;99.90
17807;DHT22;9027;48.938;9.182;2023-03-14T04:54:55;11.00;99.90
17807;DHT22;9027;48.938;9.182;2023-03-14T04:56:29;11.00;99.90
17807;DHT22;9027;48.938;9.182;2023-03-14T04:58:01;11.00;99.90
17807;DHT22;9027;48.938;9.182;2023-03-14T04:59:33;11.00;99.90
17807;DHT22;9027;48.938;9.182;2023-03-14T05:01:36;11.00;99.90
17807;DHT22;9027;48.938;9.182;2023-03-14T05:03:36;10.90;99.90
17807;DHT22;9027;48.938;9.182;2023-03-14T05:05:20;11.00;99.90
17807;DHT22;9027;48.938;9.182;2023-03-14T05:07:10;10.90;99.90
17807;DHT22;9027;48.938;9.182;2023-03-14T05:09:01;10.90;99.90
17807;DHT22;9027;48.938;9.182;2023-03-14T05:11:00;10.90;99.90
17807;DHT22;9027;48.938;9.182;2023-03-14T05:12:51;10.90;99.90
17807;DHT22;9027;48.938;9.182;2023-03-14T05:14:42;10.90;99.90
17807;DHT22;9027;48.938;9.182;2023-03-14T05:16:24;10.90;99.90
17807;DHT22;9027;48.938;9.182;2023-03-14T05:18:03;10.80;99.90
17807;DHT22;9027;48.938;9.182;2023-03-14T05:19:59;10.90;99.90
17807;DHT22;9027;48.938;9.182;2023-03-14T05:21:32;10.90;99.90
17807;DHT22;9027;48.938;9.182;2023-03-14T05:23:16;10.90;99.90
17807;DHT22;9027;48.938;9.182;2023-03-14T05:25:06;10.80;99.90
17807;DHT22;9027;48.938;9.182;2023-03-14T05:27:01;10.80;99.90
17807;DHT22;9027;48.938;9.182;2023-03-14T05:28:57;10.80;99.90
17807;DHT22;9027;48.938;9.182;2023-03-14T05:30:42;10.80;99.90
17807;DHT22;9027;48.938;9.182;2023-03-14T05:32:17;10.90;99.90
17807;DHT22;9027;48.938;9.182;2023-03-14T05:34:19;10.90;99.90
17807;DHT22;9027;48.938;9.182;2023-03-14T05:36:07;10.90;99.90
17807;DHT22;9027;48.938;9.182;2023-03-14T05:38:07;10.90;99.90
17807;DHT22;9027;48.938;9.182;2023-03-14T05:40:06;10.80;99.90
17807;DHT22;9027;48.938;9.182;2023-03-14T05:41:48;10.80;99.90
17807;DHT22;9027;48.938;9.182;2023-03-14T05:43:52;10.70;99.90
17807;DHT22;9027;48.938;9.182;2023-03-14T05:45:38;10.80;99.90
17807;DHT22;9027;48.938;9.182;2023-03-14T05:47:39;10.80;99.90
17807;DHT22;9027;48.938;9.182;2023-03-14T05:49:22;10.80;99.90
17807;DHT22;9027;48.938;9.182;2023-03-14T05:51:03;10.80;99.90
17807;DHT22;9027;48.938;9.182;2023-03-14T05:53:01;10.80;99.90
17807;DHT22;9027;48.938;9.182;2023-03-14T05:54:46;10.80;99.90
17807;DHT22;9027;48.938;9.182;2023-03-14T05:56:37;10.80;99.90
17807;DHT22;9027;48.938;9.182;2023-03-14T05:58:14;10.80;99.90
17807;DHT22;9027;48.938;9.182;2023-03-14T06:00:08;10.80;99.90
17807;DHT22;9027;48.938;9.182;2023-03-14T06:01:57;10.80;99.90
17807;DHT22;9027;48.938;9.182;2023-03-14T06:03:32;10.90;99.90
17807;DHT22;9027;48.938;9.182;2023-03-14T06:05:05;10.90;99.90
17807;DHT22;9027;48.938;9.182;2023-03-14T06:06:37;10.90;99.90
17807;DHT22;9027;48.938;9.182;2023-03-14T06:08:10;10.90;99.90
17807;DHT22;9027;48.938;9.182;2023-03-14T06:09:42;10.90;99.90
17807;DHT22;9027;48.938;9.182;2023-03-14T06:11:16;10.90;99.90
17807;DHT22;9027;48.938;9.182;2023-03-14T06:12:47;10.90;99.90
17807;DHT22;9027;48.938;9.182;2023-03-14T06:14:19;10.90;99.90
17807;DHT22;9027;48.938;9.182;2023-03-14T06:15:53;11.00;99.90
17807;DHT22;9027;48.938;9.182;2023-03-14T06:17:25;10.90;99.90
17807;DHT22;9027;48.938;9.182;2023-03-14T06:19:05;10.90;99.90
17807;DHT22;9027;48.938;9.182;2023-03-14T06:20:37;11.00;99.90
17807;DHT22;9027;48.938;9.182;2023-03-14T06:22:10;11.00;99.90
17807;DHT22;9027;48.938;9.182;2023-03-14T06:23:42;11.00;99.90
17807;DHT22;9027;48.938;9.182;2023-03-14T06:25:15;11.10;99.90
17807;DHT22;9027;48.938;9.182;2023-03-14T06:26:51;11.10;99.90
17807;DHT22;9027;48.938;9.182;2023-03-14T06:28:24;11.10;99.90
17807;DHT22;9027;48.938;9.182;2023-03-14T06:29:56;11.10;99.90
17807;DHT22;9027;48.938;9.182;2023-03-14T06:31:29;11.00;99.90
17807;DHT22;9027;48.938;9.182;2023-03-14T06:33:05;11.00;99.90
17807;DHT22;9027;48.938;9.182;2023-03-14T06:34:37;11.00;99.90
17807;DHT22;9027;48.938;9.182;2023-03-14T06:36:09;11.10;99.90
17807;DHT22;9027;48.938;9.182;2023-03-14T06:37:44;11.20;99.90
17807;DHT22;9027;48.938;9.182;2023-03-14T06:39:16;11.30;99.90
17807;DHT22;9027;48.938;9.182;2023-03-14T06:40:52;11.50;99.90
17807;DHT22;9027;48.938;9.182;2023-03-14T06:42:34;11.60;99.90
17807;DHT22;9027;48.938;9.182;2023-03-14T06:44:06;11.80;99.90
17807;DHT22;9027;48.938;9.182;2023-03-14T06:45:38;11.90;99.90
17807;DHT22;9027;48.938;9.182;2023-03-14T06:47:10;11.90;99.90
17807;DHT22;9027;48.938;9.182;2023-03-14T06:48:46;11.80;99.90
17807;DHT22;9027;48.938;9.182;2023-03-14T06:50:18;11.80;99.90
17807;DHT22;9027;48.938;9.182;2023-03-14T06:51:51;11.70;99.90
17807;DHT22;9027;48.938;9.182;2023-03-14T06:53:23;11.70;99.90
17807;DHT22;9027;48.938;9.182;2023-03-14T06:54:56;11.90;99.90
17807;DHT22;9027;48.938;9.182;2023-03-14T06:56:28;12.40;99.90
17807;DHT22;9027;48.938;9.182;2023-03-14T06:58:02;13.20;99.90
17807;DHT22;9027;48.938;9.182;2023-03-14T06:59:36;14.00;99.90
17807;DHT22;9027;48.938;9.182;2023-03-14T07:01:19;14.70;99.90
17807;DHT22;9027;48.938;9.182;2023-03-14T07:02:52;15.10;99.90
17807;DHT22;9027;48.938;9.182;2023-03-14T07:04:44;15.70;99.90
17807;DHT22;9027;48.938;9.182;2023-03-14T07:06:16;16.30;99.90
17807;DHT22;9027;48.938;9.182;2023-03-14T07:07:48;16.70;99.90
17807;DHT22;9027;48.938;9.182;2023-03-14T07:09:21;16.40;99.90
17807;DHT22;9027;48.938;9.182;2023-03-14T07:10:58;16.50;99.90
17807;DHT22;9027;48.938;9.182;2023-03-14T07:12:31;16.40;99.90
17807;DHT22;9027;48.938;9.182;2023-03-14T07:14:04;16.50;99.90
17807;DHT22;9027;48.938;9.182;2023-03-14T07:15:36;16.20;99.90
17807;DHT22;9027;48.938;9.182;2023-03-14T07:17:12;15.80;99.90
17807;DHT22;9027;48.938;9.182;2023-03-14T07:18:44;15.70;99.90
17807;DHT22;9027;48.938;9.182;2023-03-14T07:20:16;15.50;99.90
17807;DHT22;9027;48.938;9.182;2023-03-14T07:21:48;15.50;99.90
17807;DHT22;9027;48.938;9.182;2023-03-14T07:23:25;15.30;99.90
17807;DHT22;9027;48.938;9.182;2023-03-14T07:24:58;15.10;99.90
17807;DHT22;9027;48.938;9.182;2023-03-14T07:26:30;14.80;99.90
17807;DHT22;9027;48.938;9.182;2023-03-14T07:28:01;14.50;99.90
17807;DHT22;9027;48.938;9.182;2023-03-14T07:29:35;14.30;99.90
17807;DHT22;9027;48.938;9.182;2023-03-14T07:31:08;14.20;99.90
17807;DHT22;9027;48.938;9.182;2023-03-14T07:32:42;14.10;99.90
17807;DHT22;9027;48.938;9.182;2023-03-14T07:34:14;13.90;99.90
17807;DHT22;9027;48.938;9.182;2023-03-14T07:35:49;13.80;99.90
17807;DHT22;9027;48.938;9.182;2023-03-14T07:37:21;13.80;99.90
17807;DHT22;9027;48.938;9.182;2023-03-14T07:38:53;13.90;99.90
17807;DHT22;9027;48.938;9.182;2023-03-14T07:40:44;14.00;99.90
17807;DHT22;9027;48.938;9.182;2023-03-14T07:42:15;14.10;99.90
17807;DHT22;9027;48.938;9.182;2023-03-14T07:43:59;14.10;99.90
17807;DHT22;9027;48.938;9.182;2023-03-14T07:45:33;14.00;99.90
17807;DHT22;9027;48.938;9.182;2023-03-14T07:47:05;14.10;99.90
17807;DHT22;9027;48.938;9.182;2023-03-14T07:48:37;14.30;99.90
17807;DHT22;9027;48.938;9.182;2023-03-14T07:50:10;14.40;99.90
17807;DHT22;9027;48.938;9.182;2023-03-14T07:51:42;14.40;99.90
17807;DHT22;9027;48.938;9.182;2023-03-14T07:53:14;14.30;99.90
17807;DHT22;9027;48.938;9.182;2023-03-14T07:54:46;14.00;99.90
17807;DHT22;9027;48.938;9.182;2023-03-14T07:56:18;14.00;99.90
17807;DHT22;9027;48.938;9.182;2023-03-14T07:57:50;14.40;99.90
17807;DHT22;9027;48.938;9.182;2023-03-14T07:59:22;14.80;99.90
17807;DHT22;9027;48.938;9.182;2023-03-14T08:00:55;15.40;99.90
17807;DHT22;9027;48.938;9.182;2023-03-14T08:02:27;15.80;99.90
17807;DHT22;9027;48.938;9.182;2023-03-14T08:03:59;16.30;99.90
17807;DHT22;9027;48.938;9.182;2023-03-14T08:05:34;16.90;99.90
17807;DHT22;9027;48.938;9.182;2023-03-14T08:07:06;17.00;99.90
17807;DHT22;9027;48.938;9.182;2023-03-14T08:08:38;17.20;99.90
17807;DHT22;9027;48.938;9.182;2023-03-14T08:10:10;17.20;99.90
17807;DHT22;9027;48.938;9.182;2023-03-14T08:11:46;17.60;99.90
17807;DHT22;9027;48.938;9.182;2023-03-14T08:13:18;18.00;99.90
17807;DHT22;9027;48.938;9.182;2023-03-14T08:14:50;18.00;99.90
17807;DHT22;9027;48.938;9.182;2023-03-14T08:16:23;17.90;99.90
17807;DHT22;9027;48.938;9.182;2023-03-14T08:17:55;17.70;99.90
17807;DHT22;9027;48.938;9.182;2023-03-14T08:19:27;17.60;99.90
17807;DHT22;9027;48.938;9.182;2023-03-14T08:20:59;17.70;99.90
17807;DHT22;9027;48.938;9.182;2023-03-14T08:22:31;17.90;99.90
17807;DHT22;9027;48.938;9.182;2023-03-14T08:24:03;18.00;99.90
17807;DHT22;9027;48.938;9.182;2023-03-14T08:25:37;17.80;99.90
17807;DHT22;9027;48.938;9.182;2023-03-14T08:27:10;17.30;99.90
17807;DHT22;9027;48.938;9.182;2023-03-14T08:28:41;16.90;99.90
17807;DHT22;9027;48.938;9.182;2023-03-14T08:30:15;16.60;99.90
17807;DHT22;9027;48.938;9.182;2023-03-14T08:31:49;16.60;99.90
17807;DHT22;9027;48.938;9.182;2023-03-14T08:33:21;16.50;99.90
17807;DHT22;9027;48.938;9.182;2023-03-14T08:34:53;16.30;99.90
17807;DHT22;9027;48.938;9.182;2023-03-14T08:36:25;16.50;99.90
17807;DHT22;9027;48.938;9.182;2023-03-14T08:37:57;16.90;99.90
17807;DHT22;9027;48.938;9.182;2023-03-14T08:39:28;17.20;99.90
17807;DHT22;9027;48.938;9.182;2023-03-14T08:41:02;17.50;99.90
17807;DHT22;9027;48.938;9.182;2023-03-14T08:42:34;17.90;99.90
17807;DHT22;9027;48.938;9.182;2023-03-14T08:44:06;18.20;99.90
17807;DHT22;9027;48.938;9.182;2023-03-14T08:45:39;18.60;99.90
17807;DHT22;9027;48.938;9.182;2023-03-14T08:47:12;19.00;99.90
17807;DHT22;9027;48.938;9.182;2023-03-14T08:48:44;19.00;99.90
17807;DHT22;9027;48.938;9.182;2023-03-14T08:50:16;19.00;99.90
17807;DHT22;9027;48.938;9.182;2023-03-14T08:51:48;19.10;99.90
17807;DHT22;9027;48.938;9.182;2023-03-14T08:53:20;19.10;99.90
17807;DHT22;9027;48.938;9.182;2023-03-14T08:54:53;18.60;99.90
17807;DHT22;9027;48.938;9.182;2023-03-14T08:56:25;18.30;99.90
17807;DHT22;9027;48.938;9.182;2023-03-14T08:57:56;17.70;99.90
17807;DHT22;9027;48.938;9.182;2023-03-14T08:59:29;17.20;99.90
17807;DHT22;9027;48.938;9.182;2023-03-14T09:01:00;16.80;99.90
17807;DHT22;9027;48.938;9.182;2023-03-14T09:02:34;16.40;99.90
17807;DHT22;9027;48.938;9.182;2023-03-14T09:04:06;16.10;99.90
17807;DHT22;9027;48.938;9.182;2023-03-14T09:05:38;15.80;99.90
17807;DHT22;9027;48.938;9.182;2023-03-14T09:07:10;15.60;99.90
17807;DHT22;9027;48.938;9.182;2023-03-14T09:08:42;15.60;99.90
17807;DHT22;9027;48.938;9.182;2023-03-14T09:10:13;15.60;99.90
17807;DHT22;9027;48.938;9.182;2023-03-14T09:11:45;15.60;99.90
17807;DHT22;9027;48.938;9.182;2023-03-14T09:13:17;15.60;99.90
17807;DHT22;9027;48.938;9.182;2023-03-14T09:14:49;15.50;99.90
17807;DHT22;9027;48.938;9.182;2023-03-14T09:16:21;15.30;99.90
17807;DHT22;9027;48.938;9.182;2023-03-14T09:17:54;15.20;99.90
17807;DHT22;9027;48.938;9.182;2023-03-14T09:19:26;15.20;99.90
17807;DHT22;9027;48.938;9.182;2023-03-14T09:20:58;15.10;99.90
17807;DHT22;9027;48.938;9.182;2023-03-14T09:22:30;15.10;99.90
17807;DHT22;9027;48.938;9.182;2023-03-14T09:24:02;15.10;99.90
17807;DHT22;9027;48.938;9.182;2023-03-14T09:25:34;14.90;99.90
17807;DHT22;9027;48.938;9.182;2023-03-14T09:27:06;14.80;99.90
17807;DHT22;9027;48.938;9.182;2023-03-14T09:28:38;14.60;99.90
17807;DHT22;9027;48.938;9.182;2023-03-14T09:30:11;14.50;99.90
17807;DHT22;9027;48.938;9.182;2023-03-14T09:31:43;14.40;99.90
17807;DHT22;9027;48.938;9.182;2023-03-14T09:33:17;14.30;99.90
17807;DHT22;9027;48.938;9.182;2023-03-14T09:34:49;14.20;99.90
17807;DHT22;9027;48.938;9.182;2023-03-14T09:36:21;14.20;99.90
17807;DHT22;9027;48.938;9.182;2023-03-14T09:37:53;14.10;99.90
17807;DHT22;9027;48.938;9.182;2023-03-14T09:39:25;14.00;99.90
17807;DHT22;9027;48.938;9.182;2023-03-14T09:40:59;13.90;99.90
17807;DHT22;9027;48.938;9.182;2023-03-14T09:42:32;13.90;99.90
17807;DHT22;9027;48.938;9.182;2023-03-14T09:44:08;13.90;99.90
17807;DHT22;9027;48.938;9.182;2023-03-14T09:45:42;13.90;99.90
17807;DHT22;9027;48.938;9.182;2023-03-14T09:47:16;14.00;99.90
17807;DHT22;9027;48.938;9.182;2023-03-14T09:48:51;14.00;99.90
17807;DHT22;9027;48.938;9.182;2023-03-14T09:50:24;14.00;99.90
17807;DHT22;9027;48.938;9.182;2023-03-14T09:51:58;13.80;99.90
17807;DHT22;9027;48.938;9.182;2023-03-14T09:53:37;13.80;99.90
17807;DHT22;9027;48.938;9.182;2023-03-14T09:55:13;13.70;99.90
17807;DHT22;9027;48.938;9.182;2023-03-14T09:56:47;13.70;99.90
17807;DHT22;9027;48.938;9.182;2023-03-14T09:58:20;13.70;99.90
17807;DHT22;9027;48.938;9.182;2023-03-14T09:59:56;13.80;99.90
17807;DHT22;9027;48.938;9.182;2023-03-14T10:01:31;13.80;99.90
17807;DHT22;9027;48.938;9.182;2023-03-14T10:03:22;13.80;99.90
17807;DHT22;9027;48.938;9.182;2023-03-14T10:04:55;13.80;99.90
17807;DHT22;9027;48.938;9.182;2023-03-14T10:06:29;14.00;99.90
17807;DHT22;9027;48.938;9.182;2023-03-14T10:08:01;14.20;99.90
17807;DHT22;9027;48.938;9.182;2023-03-14T10:09:33;14.50;99.90
17807;DHT22;9027;48.938;9.182;2023-03-14T10:11:06;14.80;99.90
17807;DHT22;9027;48.938;9.182;2023-03-14T10:12:38;15.10;99.90